sensor_id;sensor_type;location;lat;lon;timestamp;P1;durP1;ratioP1;P2;durP2;ratioP2
51475;SDS011;37554;50.362;7.568;2024-03-08T00:02:02;6.40;;;5.43;;
51475;SDS011;37554;50.362;7.568;2024-03-08T00:04:28;6.82;;;6.10;;
51475;SDS011;37554;50.362;7.568;2024-03-08T00:06:54;5.82;;;5.32;;
51475;SDS011;37554;50.362;7.568;2024-03-08T00:09:20;6.57;;;5.68;;
51475;SDS011;37554;50.362;7.568;2024-03-08T00:11:46;6.78;;;6.13;;
51475;SDS011;37554;50.362;7.568;2024-03-08T00:14:13;5.97;;;5.47;;
51475;SDS011;37554;50.362;7.568;2024-03-08T00:16:39;6.38;;;5.57;;
51475;SDS011;37554;50.362;7.568;2024-03-08T00:19:08;6.15;;;5.55;;
51475;SDS011;37554;50.362;7.568;2024-03-08T00:21:34;6.25;;;5.65;;
51475;SDS011;37554;50.362;7.568;2024-03-08T00:24:00;6.22;;;5.63;;
51475;SDS011;37554;50.362;7.568;2024-03-08T00:26:26;6.07;;;5.47;;
51475;SDS011;37554;50.362;7.568;2024-03-08T00:28:53;5.90;;;5.28;;
51475;SDS011;37554;50.362;7.568;2024-03-08T00:31:19;8.20;;;6.15;;
51475;SDS011;37554;50.362;7.568;2024-03-08T00:33:45;6.78;;;6.07;;
51475;SDS011;37554;50.362;7.568;2024-03-08T00:36:11;6.38;;;5.78;;
51475;SDS011;37554;50.362;7.568;2024-03-08T00:38:36;6.38;;;5.43;;
51475;SDS011;37554;50.362;7.568;2024-03-08T00:41:02;6.25;;;5.63;;
51475;SDS011;37554;50.362;7.568;2024-03-08T00:43:28;6.03;;;5.45;;
51475;SDS011;37554;50.362;7.568;2024-03-08T00:45:55;6.68;;;5.88;;
51475;SDS011;37554;50.362;7.568;2024-03-08T00:48:21;6.03;;;5.43;;
51475;SDS011;37554;50.362;7.568;2024-03-08T00:50:46;7.10;;;5.90;;
51475;SDS011;37554;50.362;7.568;2024-03-08T00:53:13;5.90;;;5.30;;
51475;SDS011;37554;50.362;7.568;2024-03-08T00:55:38;6.50;;;5.65;;
51475;SDS011;37554;50.362;7.568;2024-03-08T00:58:04;6.90;;;5.85;;
51475;SDS011;37554;50.362;7.568;2024-03-08T01:00:30;6.28;;;5.43;;
51475;SDS011;37554;50.362;7.568;2024-03-08T01:02:56;5.72;;;5.20;;
51475;SDS011;37554;50.362;7.568;2024-03-08T01:05:21;6.75;;;6.00;;
51475;SDS011;37554;50.362;7.568;2024-03-08T01:07:49;6.78;;;5.93;;
51475;SDS011;37554;50.362;7.568;2024-03-08T01:10:15;6.65;;;5.78;;
51475;SDS011;37554;50.362;7.568;2024-03-08T01:12:41;6.32;;;5.78;;
51475;SDS011;37554;50.362;7.568;2024-03-08T01:15:08;6.68;;;5.22;;
51475;SDS011;37554;50.362;7.568;2024-03-08T01:17:35;6.28;;;5.68;;
51475;SDS011;37554;50.362;7.568;2024-03-08T01:20:01;6.47;;;5.75;;
51475;SDS011;37554;50.362;7.568;2024-03-08T01:22:28;7.13;;;5.95;;
51475;SDS011;37554;50.362;7.568;2024-03-08T01:24:55;7.00;;;6.30;;
51475;SDS011;37554;50.362;7.568;2024-03-08T01:27:20;7.28;;;5.53;;
51475;SDS011;37554;50.362;7.568;2024-03-08T01:29:46;6.43;;;5.75;;
51475;SDS011;37554;50.362;7.568;2024-03-08T01:32:12;6.00;;;5.47;;
51475;SDS011;37554;50.362;7.568;2024-03-08T01:34:38;5.90;;;5.30;;
51475;SDS011;37554;50.362;7.568;2024-03-08T01:37:04;6.65;;;5.80;;
51475;SDS011;37554;50.362;7.568;2024-03-08T01:39:29;6.10;;;5.40;;
51475;SDS011;37554;50.362;7.568;2024-03-08T01:41:56;6.95;;;6.22;;
51475;SDS011;37554;50.362;7.568;2024-03-08T01:44:22;5.82;;;5.28;;
51475;SDS011;37554;50.362;7.568;2024-03-08T01:46:47;6.88;;;6.18;;
51475;SDS011;37554;50.362;7.568;2024-03-08T01:49:14;6.55;;;5.95;;
51475;SDS011;37554;50.362;7.568;2024-03-08T01:51:44;6.75;;;5.88;;
51475;SDS011;37554;50.362;7.568;2024-03-08T01:54:12;6.63;;;5.82;;
51475;SDS011;37554;50.362;7.568;2024-03-08T01:56:41;6.95;;;6.20;;
51475;SDS011;37554;50.362;7.568;2024-03-08T01:59:07;6.72;;;5.82;;
51475;SDS011;37554;50.362;7.568;2024-03-08T02:01:33;7.43;;;6.03;;
51475;SDS011;37554;50.362;7.568;2024-03-08T02:03:59;7.38;;;6.03;;
51475;SDS011;37554;50.362;7.568;2024-03-08T02:06:25;6.10;;;5.50;;
51475;SDS011;37554;50.362;7.568;2024-03-08T02:08:51;6.97;;;6.28;;
51475;SDS011;37554;50.362;7.568;2024-03-08T02:11:17;7.00;;;6.28;;
51475;SDS011;37554;50.362;7.568;2024-03-08T02:13:43;6.15;;;5.60;;
51475;SDS011;37554;50.362;7.568;2024-03-08T02:16:09;7.30;;;5.78;;
51475;SDS011;37554;50.362;7.568;2024-03-08T02:18:35;6.82;;;5.88;;
51475;SDS011;37554;50.362;7.568;2024-03-08T02:21:02;7.63;;;5.93;;
51475;SDS011;37554;50.362;7.568;2024-03-08T02:23:28;6.72;;;6.00;;
51475;SDS011;37554;50.362;7.568;2024-03-08T02:25:55;6.60;;;6.00;;
51475;SDS011;37554;50.362;7.568;2024-03-08T02:28:21;6.40;;;5.78;;
51475;SDS011;37554;50.362;7.568;2024-03-08T02:30:47;6.75;;;6.15;;
51475;SDS011;37554;50.362;7.568;2024-03-08T02:33:19;6.90;;;6.30;;
51475;SDS011;37554;50.362;7.568;2024-03-08T02:35:45;8.15;;;5.45;;
51475;SDS011;37554;50.362;7.568;2024-03-08T02:38:12;6.88;;;6.18;;
51475;SDS011;37554;50.362;7.568;2024-03-08T02:40:41;6.95;;;6.30;;
51475;SDS011;37554;50.362;7.568;2024-03-08T02:43:10;6.55;;;5.90;;
51475;SDS011;37554;50.362;7.568;2024-03-08T02:45:36;6.55;;;5.90;;
51475;SDS011;37554;50.362;7.568;2024-03-08T02:48:02;7.50;;;6.80;;
51475;SDS011;37554;50.362;7.568;2024-03-08T02:50:28;7.30;;;6.60;;
51475;SDS011;37554;50.362;7.568;2024-03-08T02:52:54;6.72;;;6.13;;
51475;SDS011;37554;50.362;7.568;2024-03-08T02:55:20;7.95;;;6.55;;
51475;SDS011;37554;50.362;7.568;2024-03-08T02:57:46;7.43;;;6.47;;
51475;SDS011;37554;50.362;7.568;2024-03-08T03:00:14;6.90;;;6.18;;
51475;SDS011;37554;50.362;7.568;2024-03-08T03:02:40;6.40;;;5.72;;
51475;SDS011;37554;50.362;7.568;2024-03-08T03:05:07;6.88;;;6.22;;
51475;SDS011;37554;50.362;7.568;2024-03-08T03:07:34;7.35;;;6.35;;
51475;SDS011;37554;50.362;7.568;2024-03-08T03:10:00;7.05;;;6.28;;
51475;SDS011;37554;50.362;7.568;2024-03-08T03:12:30;8.27;;;6.75;;
51475;SDS011;37554;50.362;7.568;2024-03-08T03:14:56;6.90;;;6.18;;
51475;SDS011;37554;50.362;7.568;2024-03-08T03:17:25;7.18;;;6.50;;
51475;SDS011;37554;50.362;7.568;2024-03-08T03:19:52;7.95;;;6.43;;
51475;SDS011;37554;50.362;7.568;2024-03-08T03:22:20;7.43;;;6.70;;
51475;SDS011;37554;50.362;7.568;2024-03-08T03:24:46;8.20;;;6.53;;
51475;SDS011;37554;50.362;7.568;2024-03-08T03:27:12;7.60;;;6.07;;
51475;SDS011;37554;50.362;7.568;2024-03-08T03:29:40;6.78;;;6.13;;
51475;SDS011;37554;50.362;7.568;2024-03-08T03:32:10;7.63;;;6.85;;
51475;SDS011;37554;50.362;7.568;2024-03-08T03:34:37;7.03;;;6.28;;
51475;SDS011;37554;50.362;7.568;2024-03-08T03:37:03;7.25;;;6.32;;
51475;SDS011;37554;50.362;7.568;2024-03-08T03:39:29;7.20;;;6.47;;
51475;SDS011;37554;50.362;7.568;2024-03-08T03:41:57;7.63;;;6.90;;
51475;SDS011;37554;50.362;7.568;2024-03-08T03:44:23;7.07;;;6.43;;
51475;SDS011;37554;50.362;7.568;2024-03-08T03:46:49;6.95;;;6.28;;
51475;SDS011;37554;50.362;7.568;2024-03-08T03:49:17;7.15;;;6.30;;
51475;SDS011;37554;50.362;7.568;2024-03-08T03:51:43;7.78;;;6.57;;
51475;SDS011;37554;50.362;7.568;2024-03-08T03:54:09;8.30;;;6.45;;
51475;SDS011;37554;50.362;7.568;2024-03-08T03:56:35;8.52;;;6.45;;
51475;SDS011;37554;50.362;7.568;2024-03-08T03:59:01;8.07;;;7.28;;
51475;SDS011;37554;50.362;7.568;2024-03-08T04:01:26;8.10;;;6.72;;
51475;SDS011;37554;50.362;7.568;2024-03-08T04:03:52;7.70;;;6.90;;
51475;SDS011;37554;50.362;7.568;2024-03-08T04:06:18;7.53;;;6.82;;
51475;SDS011;37554;50.362;7.568;2024-03-08T04:08:43;7.90;;;6.78;;
51475;SDS011;37554;50.362;7.568;2024-03-08T04:11:09;8.80;;;6.78;;
51475;SDS011;37554;50.362;7.568;2024-03-08T04:13:35;6.75;;;6.13;;
51475;SDS011;37554;50.362;7.568;2024-03-08T04:16:01;7.30;;;6.47;;
51475;SDS011;37554;50.362;7.568;2024-03-08T04:18:27;7.35;;;6.43;;
51475;SDS011;37554;50.362;7.568;2024-03-08T04:20:53;7.10;;;6.40;;
51475;SDS011;37554;50.362;7.568;2024-03-08T04:23:18;7.40;;;6.70;;
51475;SDS011;37554;50.362;7.568;2024-03-08T04:25:44;7.75;;;6.95;;
51475;SDS011;37554;50.362;7.568;2024-03-08T04:28:10;8.85;;;6.82;;
51475;SDS011;37554;50.362;7.568;2024-03-08T04:30:37;7.53;;;6.72;;
51475;SDS011;37554;50.362;7.568;2024-03-08T04:33:05;7.25;;;6.47;;
51475;SDS011;37554;50.362;7.568;2024-03-08T04:35:34;7.22;;;6.53;;
51475;SDS011;37554;50.362;7.568;2024-03-08T04:38:00;8.60;;;7.30;;
51475;SDS011;37554;50.362;7.568;2024-03-08T04:40:26;8.65;;;6.90;;
51475;SDS011;37554;50.362;7.568;2024-03-08T04:42:51;8.18;;;6.75;;
51475;SDS011;37554;50.362;7.568;2024-03-08T04:45:17;8.50;;;7.40;;
51475;SDS011;37554;50.362;7.568;2024-03-08T04:47:43;8.60;;;7.53;;
51475;SDS011;37554;50.362;7.568;2024-03-08T04:50:08;7.55;;;6.85;;
51475;SDS011;37554;50.362;7.568;2024-03-08T04:52:34;7.88;;;6.72;;
51475;SDS011;37554;50.362;7.568;2024-03-08T04:55:03;8.82;;;7.15;;
51475;SDS011;37554;50.362;7.568;2024-03-08T04:57:30;7.82;;;6.93;;
51475;SDS011;37554;50.362;7.568;2024-03-08T04:59:55;8.07;;;6.88;;
51475;SDS011;37554;50.362;7.568;2024-03-08T05:02:23;9.40;;;7.65;;
51475;SDS011;37554;50.362;7.568;2024-03-08T05:04:48;8.05;;;7.25;;
51475;SDS011;37554;50.362;7.568;2024-03-08T05:07:14;7.78;;;7.00;;
51475;SDS011;37554;50.362;7.568;2024-03-08T05:09:39;9.60;;;7.45;;
51475;SDS011;37554;50.362;7.568;2024-03-08T05:12:06;8.63;;;7.72;;
51475;SDS011;37554;50.362;7.568;2024-03-08T05:14:33;7.95;;;6.95;;
51475;SDS011;37554;50.362;7.568;2024-03-08T05:17:00;9.82;;;7.80;;
51475;SDS011;37554;50.362;7.568;2024-03-08T05:19:26;8.27;;;7.47;;
51475;SDS011;37554;50.362;7.568;2024-03-08T05:21:51;7.90;;;7.10;;
51475;SDS011;37554;50.362;7.568;2024-03-08T05:24:17;8.55;;;7.65;;
51475;SDS011;37554;50.362;7.568;2024-03-08T05:26:43;8.27;;;7.10;;
51475;SDS011;37554;50.362;7.568;2024-03-08T05:29:10;8.25;;;7.45;;
51475;SDS011;37554;50.362;7.568;2024-03-08T05:31:38;7.85;;;6.80;;
51475;SDS011;37554;50.362;7.568;2024-03-08T05:34:13;7.97;;;7.28;;
51475;SDS011;37554;50.362;7.568;2024-03-08T05:36:39;8.40;;;7.07;;
51475;SDS011;37554;50.362;7.568;2024-03-08T05:39:05;9.43;;;7.82;;
51475;SDS011;37554;50.362;7.568;2024-03-08T05:41:31;8.02;;;7.20;;
51475;SDS011;37554;50.362;7.568;2024-03-08T05:43:57;8.32;;;7.20;;
51475;SDS011;37554;50.362;7.568;2024-03-08T05:46:22;8.30;;;7.47;;
51475;SDS011;37554;50.362;7.568;2024-03-08T05:48:48;9.07;;;7.35;;
51475;SDS011;37554;50.362;7.568;2024-03-08T05:51:14;10.57;;;7.82;;
51475;SDS011;37554;50.362;7.568;2024-03-08T05:53:40;9.20;;;7.50;;
51475;SDS011;37554;50.362;7.568;2024-03-08T05:56:05;8.68;;;7.78;;
51475;SDS011;37554;50.362;7.568;2024-03-08T05:58:31;8.65;;;7.57;;
51475;SDS011;37554;50.362;7.568;2024-03-08T06:00:57;8.45;;;7.50;;
51475;SDS011;37554;50.362;7.568;2024-03-08T06:03:22;8.93;;;7.68;;
51475;SDS011;37554;50.362;7.568;2024-03-08T06:05:48;9.32;;;8.00;;
51475;SDS011;37554;50.362;7.568;2024-03-08T06:08:14;8.93;;;8.07;;
51475;SDS011;37554;50.362;7.568;2024-03-08T06:10:40;9.73;;;7.82;;
51475;SDS011;37554;50.362;7.568;2024-03-08T06:13:06;10.20;;;8.00;;
51475;SDS011;37554;50.362;7.568;2024-03-08T06:15:32;10.85;;;8.48;;
51475;SDS011;37554;50.362;7.568;2024-03-08T06:17:57;9.07;;;7.75;;
51475;SDS011;37554;50.362;7.568;2024-03-08T06:20:23;10.18;;;8.07;;
51475;SDS011;37554;50.362;7.568;2024-03-08T06:22:51;8.60;;;7.55;;
51475;SDS011;37554;50.362;7.568;2024-03-08T06:25:17;9.38;;;8.48;;
51475;SDS011;37554;50.362;7.568;2024-03-08T06:27:43;8.98;;;7.57;;
51475;SDS011;37554;50.362;7.568;2024-03-08T06:30:10;8.40;;;7.63;;
51475;SDS011;37554;50.362;7.568;2024-03-08T06:32:37;9.05;;;8.05;;
51475;SDS011;37554;50.362;7.568;2024-03-08T06:35:05;9.63;;;8.27;;
51475;SDS011;37554;50.362;7.568;2024-03-08T06:37:34;9.00;;;7.95;;
51475;SDS011;37554;50.362;7.568;2024-03-08T06:40:00;8.65;;;7.75;;
51475;SDS011;37554;50.362;7.568;2024-03-08T06:42:27;9.13;;;8.23;;
51475;SDS011;37554;50.362;7.568;2024-03-08T06:44:53;8.65;;;7.75;;
51475;SDS011;37554;50.362;7.568;2024-03-08T06:47:21;10.43;;;8.38;;
51475;SDS011;37554;50.362;7.568;2024-03-08T06:49:47;10.13;;;7.60;;
51475;SDS011;37554;50.362;7.568;2024-03-08T06:52:14;9.50;;;8.18;;
51475;SDS011;37554;50.362;7.568;2024-03-08T06:54:40;9.00;;;8.10;;
51475;SDS011;37554;50.362;7.568;2024-03-08T06:57:05;9.48;;;8.27;;
51475;SDS011;37554;50.362;7.568;2024-03-08T06:59:31;8.77;;;7.88;;
51475;SDS011;37554;50.362;7.568;2024-03-08T07:01:57;8.57;;;7.68;;
51475;SDS011;37554;50.362;7.568;2024-03-08T07:04:24;11.13;;;8.40;;
51475;SDS011;37554;50.362;7.568;2024-03-08T07:06:54;10.13;;;8.25;;
51475;SDS011;37554;50.362;7.568;2024-03-08T07:09:20;10.82;;;8.82;;
51475;SDS011;37554;50.362;7.568;2024-03-08T07:11:46;12.38;;;8.38;;
51475;SDS011;37554;50.362;7.568;2024-03-08T07:14:12;9.23;;;8.32;;
51475;SDS011;37554;50.362;7.568;2024-03-08T07:16:40;9.68;;;8.20;;
51475;SDS011;37554;50.362;7.568;2024-03-08T07:19:06;9.30;;;7.97;;
51475;SDS011;37554;50.362;7.568;2024-03-08T07:21:32;9.52;;;8.45;;
51475;SDS011;37554;50.362;7.568;2024-03-08T07:23:57;9.05;;;7.90;;
51475;SDS011;37554;50.362;7.568;2024-03-08T07:26:27;9.18;;;8.10;;
51475;SDS011;37554;50.362;7.568;2024-03-08T07:28:53;10.80;;;8.20;;
51475;SDS011;37554;50.362;7.568;2024-03-08T07:31:20;10.15;;;8.35;;
51475;SDS011;37554;50.362;7.568;2024-03-08T07:34:03;10.30;;;8.63;;
51475;SDS011;37554;50.362;7.568;2024-03-08T07:36:32;9.50;;;8.10;;
51475;SDS011;37554;50.362;7.568;2024-03-08T07:39:01;8.98;;;8.07;;
51475;SDS011;37554;50.362;7.568;2024-03-08T07:41:27;9.00;;;8.10;;
51475;SDS011;37554;50.362;7.568;2024-03-08T07:43:55;8.90;;;7.78;;
51475;SDS011;37554;50.362;7.568;2024-03-08T07:46:20;9.35;;;8.00;;
51475;SDS011;37554;50.362;7.568;2024-03-08T07:48:46;9.15;;;8.18;;
51475;SDS011;37554;50.362;7.568;2024-03-08T07:51:15;9.65;;;8.38;;
51475;SDS011;37554;50.362;7.568;2024-03-08T07:53:42;8.82;;;7.65;;
51475;SDS011;37554;50.362;7.568;2024-03-08T07:56:08;8.82;;;7.25;;
51475;SDS011;37554;50.362;7.568;2024-03-08T07:58:38;9.10;;;7.78;;
51475;SDS011;37554;50.362;7.568;2024-03-08T08:01:05;9.18;;;7.72;;
51475;SDS011;37554;50.362;7.568;2024-03-08T08:03:31;9.35;;;7.80;;
51475;SDS011;37554;50.362;7.568;2024-03-08T08:05:57;8.70;;;7.63;;
51475;SDS011;37554;50.362;7.568;2024-03-08T08:08:22;8.52;;;7.55;;
51475;SDS011;37554;50.362;7.568;2024-03-08T08:10:48;8.60;;;7.72;;
51475;SDS011;37554;50.362;7.568;2024-03-08T08:13:14;8.40;;;7.50;;
51475;SDS011;37554;50.362;7.568;2024-03-08T08:15:40;8.05;;;7.25;;
51475;SDS011;37554;50.362;7.568;2024-03-08T08:18:06;7.47;;;6.60;;
51475;SDS011;37554;50.362;7.568;2024-03-08T08:20:34;8.15;;;7.00;;
51475;SDS011;37554;50.362;7.568;2024-03-08T08:23:00;7.13;;;6.40;;
51475;SDS011;37554;50.362;7.568;2024-03-08T08:25:26;9.40;;;6.43;;
51475;SDS011;37554;50.362;7.568;2024-03-08T08:27:51;7.63;;;6.82;;
51475;SDS011;37554;50.362;7.568;2024-03-08T08:30:19;8.15;;;7.30;;
51475;SDS011;37554;50.362;7.568;2024-03-08T08:32:45;7.25;;;6.55;;
51475;SDS011;37554;50.362;7.568;2024-03-08T08:35:12;8.20;;;7.40;;
51475;SDS011;37554;50.362;7.568;2024-03-08T08:37:38;7.75;;;6.95;;
51475;SDS011;37554;50.362;7.568;2024-03-08T08:40:05;7.28;;;6.57;;
51475;SDS011;37554;50.362;7.568;2024-03-08T08:42:34;7.88;;;7.07;;
51475;SDS011;37554;50.362;7.568;2024-03-08T08:45:01;6.60;;;6.00;;
51475;SDS011;37554;50.362;7.568;2024-03-08T08:47:27;6.85;;;6.10;;
51475;SDS011;37554;50.362;7.568;2024-03-08T08:49:53;8.80;;;6.32;;
51475;SDS011;37554;50.362;7.568;2024-03-08T08:52:19;7.18;;;6.47;;
51475;SDS011;37554;50.362;7.568;2024-03-08T08:54:44;7.03;;;6.43;;
51475;SDS011;37554;50.362;7.568;2024-03-08T08:57:10;6.57;;;5.97;;
51475;SDS011;37554;50.362;7.568;2024-03-08T08:59:36;8.27;;;6.25;;
51475;SDS011;37554;50.362;7.568;2024-03-08T09:02:04;6.22;;;5.63;;
51475;SDS011;37554;50.362;7.568;2024-03-08T09:04:30;6.88;;;5.85;;
51475;SDS011;37554;50.362;7.568;2024-03-08T09:06:56;7.50;;;5.85;;
51475;SDS011;37554;50.362;7.568;2024-03-08T09:09:22;6.40;;;5.80;;
51475;SDS011;37554;50.362;7.568;2024-03-08T09:11:48;6.80;;;6.10;;
51475;SDS011;37554;50.362;7.568;2024-03-08T09:14:14;7.28;;;6.05;;
51475;SDS011;37554;50.362;7.568;2024-03-08T09:16:40;6.97;;;6.00;;
51475;SDS011;37554;50.362;7.568;2024-03-08T09:19:06;6.93;;;6.32;;
51475;SDS011;37554;50.362;7.568;2024-03-08T09:21:32;6.57;;;5.88;;
51475;SDS011;37554;50.362;7.568;2024-03-08T09:23:59;7.25;;;6.55;;
51475;SDS011;37554;50.362;7.568;2024-03-08T09:26:25;6.35;;;5.75;;
51475;SDS011;37554;50.362;7.568;2024-03-08T09:28:51;6.70;;;6.05;;
51475;SDS011;37554;50.362;7.568;2024-03-08T09:31:17;6.53;;;5.90;;
51475;SDS011;37554;50.362;7.568;2024-03-08T09:33:43;6.72;;;6.07;;
51475;SDS011;37554;50.362;7.568;2024-03-08T09:36:08;6.07;;;5.47;;
51475;SDS011;37554;50.362;7.568;2024-03-08T09:38:34;6.68;;;5.97;;
51475;SDS011;37554;50.362;7.568;2024-03-08T09:41:00;6.35;;;5.70;;
51475;SDS011;37554;50.362;7.568;2024-03-08T09:43:29;5.93;;;5.43;;
51475;SDS011;37554;50.362;7.568;2024-03-08T09:45:55;6.43;;;5.82;;
51475;SDS011;37554;50.362;7.568;2024-03-08T09:48:22;6.13;;;5.53;;
51475;SDS011;37554;50.362;7.568;2024-03-08T09:50:48;6.57;;;5.97;;
51475;SDS011;37554;50.362;7.568;2024-03-08T09:53:14;5.88;;;5.38;;
51475;SDS011;37554;50.362;7.568;2024-03-08T09:55:40;7.20;;;5.32;;
51475;SDS011;37554;50.362;7.568;2024-03-08T09:58:10;6.60;;;5.90;;
51475;SDS011;37554;50.362;7.568;2024-03-08T10:00:53;5.93;;;5.43;;
51475;SDS011;37554;50.362;7.568;2024-03-08T10:03:19;5.65;;;5.15;;
51475;SDS011;37554;50.362;7.568;2024-03-08T10:05:45;6.25;;;5.75;;
51475;SDS011;37554;50.362;7.568;2024-03-08T10:08:11;5.70;;;5.20;;
51475;SDS011;37554;50.362;7.568;2024-03-08T10:10:38;5.78;;;5.20;;
51475;SDS011;37554;50.362;7.568;2024-03-08T10:13:05;5.22;;;4.82;;
51475;SDS011;37554;50.362;7.568;2024-03-08T10:15:31;5.53;;;4.85;;
51475;SDS011;37554;50.362;7.568;2024-03-08T10:17:58;5.15;;;4.75;;
51475;SDS011;37554;50.362;7.568;2024-03-08T10:20:24;5.78;;;5.28;;
51475;SDS011;37554;50.362;7.568;2024-03-08T10:22:51;5.22;;;4.55;;
51475;SDS011;37554;50.362;7.568;2024-03-08T10:25:18;4.95;;;4.55;;
51475;SDS011;37554;50.362;7.568;2024-03-08T10:27:44;5.30;;;4.90;;
51475;SDS011;37554;50.362;7.568;2024-03-08T10:30:10;5.40;;;4.90;;
51475;SDS011;37554;50.362;7.568;2024-03-08T10:32:39;5.22;;;4.82;;
51475;SDS011;37554;50.362;7.568;2024-03-08T10:35:06;5.22;;;4.82;;
51475;SDS011;37554;50.362;7.568;2024-03-08T10:37:40;4.95;;;4.53;;
51475;SDS011;37554;50.362;7.568;2024-03-08T10:40:17;4.57;;;4.18;;
51475;SDS011;37554;50.362;7.568;2024-03-08T10:42:51;5.00;;;4.60;;
51475;SDS011;37554;50.362;7.568;2024-03-08T10:45:30;4.10;;;3.80;;
51475;SDS011;37554;50.362;7.568;2024-03-08T10:48:04;4.70;;;4.30;;
51475;SDS011;37554;50.362;7.568;2024-03-08T10:50:48;4.68;;;4.28;;
51475;SDS011;37554;50.362;7.568;2024-03-08T10:53:15;4.93;;;4.50;;
51475;SDS011;37554;50.362;7.568;2024-03-08T10:55:43;4.75;;;4.35;;
51475;SDS011;37554;50.362;7.568;2024-03-08T10:58:10;4.20;;;3.90;;
51475;SDS011;37554;50.362;7.568;2024-03-08T11:00:36;4.68;;;4.30;;
51475;SDS011;37554;50.362;7.568;2024-03-08T11:03:02;4.65;;;4.35;;
51475;SDS011;37554;50.362;7.568;2024-03-08T11:05:32;4.60;;;4.20;;
51475;SDS011;37554;50.362;7.568;2024-03-08T11:08:19;3.90;;;3.60;;
51475;SDS011;37554;50.362;7.568;2024-03-08T11:10:52;4.13;;;3.83;;
51475;SDS011;37554;50.362;7.568;2024-03-08T11:13:36;3.78;;;3.47;;
51475;SDS011;37554;50.362;7.568;2024-03-08T11:16:09;4.20;;;3.90;;
51475;SDS011;37554;50.362;7.568;2024-03-08T11:18:36;3.97;;;3.67;;
51475;SDS011;37554;50.362;7.568;2024-03-08T11:21:05;4.40;;;4.00;;
51475;SDS011;37554;50.362;7.568;2024-03-08T11:23:37;3.95;;;3.65;;
51475;SDS011;37554;50.362;7.568;2024-03-08T11:26:16;4.13;;;3.72;;
51475;SDS011;37554;50.362;7.568;2024-03-08T11:28:46;3.67;;;3.38;;
51475;SDS011;37554;50.362;7.568;2024-03-08T11:33:39;4.05;;;3.75;;
51475;SDS011;37554;50.362;7.568;2024-03-08T11:36:21;3.90;;;3.60;;
51475;SDS011;37554;50.362;7.568;2024-03-08T11:38:49;3.47;;;3.25;;
51475;SDS011;37554;50.362;7.568;2024-03-08T11:41:18;3.90;;;3.60;;
51475;SDS011;37554;50.362;7.568;2024-03-08T11:43:46;3.83;;;3.05;;
51475;SDS011;37554;50.362;7.568;2024-03-08T11:46:12;3.55;;;3.25;;
51475;SDS011;37554;50.362;7.568;2024-03-08T11:48:42;3.67;;;3.38;;
51475;SDS011;37554;50.362;7.568;2024-03-08T11:51:12;3.47;;;3.08;;
51475;SDS011;37554;50.362;7.568;2024-03-08T11:53:39;3.20;;;2.97;;
51475;SDS011;37554;50.362;7.568;2024-03-08T11:56:09;3.20;;;3.00;;
51475;SDS011;37554;50.362;7.568;2024-03-08T11:58:36;2.97;;;2.78;;
51475;SDS011;37554;50.362;7.568;2024-03-08T12:01:06;3.00;;;2.80;;
51475;SDS011;37554;50.362;7.568;2024-03-08T12:03:34;3.03;;;2.83;;
51475;SDS011;37554;50.362;7.568;2024-03-08T12:06:00;3.10;;;2.90;;
51475;SDS011;37554;50.362;7.568;2024-03-08T12:08:28;3.08;;;2.78;;
51475;SDS011;37554;50.362;7.568;2024-03-08T12:10:56;3.00;;;2.80;;
51475;SDS011;37554;50.362;7.568;2024-03-08T12:13:31;3.17;;;2.97;;
51475;SDS011;37554;50.362;7.568;2024-03-08T12:15:59;2.88;;;2.67;;
51475;SDS011;37554;50.362;7.568;2024-03-08T12:18:25;3.22;;;2.90;;
51475;SDS011;37554;50.362;7.568;2024-03-08T12:21:07;2.75;;;2.55;;
51475;SDS011;37554;50.362;7.568;2024-03-08T12:23:35;3.05;;;2.85;;
51475;SDS011;37554;50.362;7.568;2024-03-08T12:28:41;3.08;;;2.78;;
51475;SDS011;37554;50.362;7.568;2024-03-08T12:31:09;2.95;;;2.75;;
51475;SDS011;37554;50.362;7.568;2024-03-08T12:36:19;3.33;;;2.65;;
51475;SDS011;37554;50.362;7.568;2024-03-08T12:38:45;2.88;;;2.67;;
51475;SDS011;37554;50.362;7.568;2024-03-08T12:41:17;3.55;;;2.85;;
51475;SDS011;37554;50.362;7.568;2024-03-08T12:43:44;2.58;;;2.38;;
51475;SDS011;37554;50.362;7.568;2024-03-08T12:46:22;2.55;;;2.42;;
51475;SDS011;37554;50.362;7.568;2024-03-08T12:48:51;2.65;;;2.47;;
51475;SDS011;37554;50.362;7.568;2024-03-08T12:51:18;2.95;;;2.75;;
51475;SDS011;37554;50.362;7.568;2024-03-08T12:53:45;2.95;;;2.70;;
51475;SDS011;37554;50.362;7.568;2024-03-08T12:56:12;2.90;;;2.70;;
51475;SDS011;37554;50.362;7.568;2024-03-08T12:58:39;2.50;;;2.40;;
51475;SDS011;37554;50.362;7.568;2024-03-08T13:01:05;2.83;;;2.63;;
51475;SDS011;37554;50.362;7.568;2024-03-08T13:03:34;2.65;;;2.45;;
51475;SDS011;37554;50.362;7.568;2024-03-08T13:06:03;2.67;;;2.47;;
51475;SDS011;37554;50.362;7.568;2024-03-08T13:08:36;2.67;;;2.47;;
51475;SDS011;37554;50.362;7.568;2024-03-08T13:11:05;2.55;;;2.35;;
51475;SDS011;37554;50.362;7.568;2024-03-08T13:13:37;2.85;;;2.65;;
51475;SDS011;37554;50.362;7.568;2024-03-08T13:16:05;2.97;;;2.78;;
51475;SDS011;37554;50.362;7.568;2024-03-08T13:18:34;2.58;;;2.38;;
51475;SDS011;37554;50.362;7.568;2024-03-08T13:21:00;2.90;;;2.60;;
51475;SDS011;37554;50.362;7.568;2024-03-08T13:23:32;2.47;;;2.25;;
51475;SDS011;37554;50.362;7.568;2024-03-08T13:26:10;2.58;;;2.40;;
51475;SDS011;37554;50.362;7.568;2024-03-08T13:28:40;2.58;;;2.38;;
51475;SDS011;37554;50.362;7.568;2024-03-08T13:31:19;2.63;;;2.42;;
51475;SDS011;37554;50.362;7.568;2024-03-08T13:33:45;2.70;;;2.50;;
51475;SDS011;37554;50.362;7.568;2024-03-08T13:36:12;3.22;;;2.42;;
51475;SDS011;37554;50.362;7.568;2024-03-08T13:38:44;2.60;;;2.45;;
51475;SDS011;37554;50.362;7.568;2024-03-08T13:41:11;2.83;;;2.63;;
51475;SDS011;37554;50.362;7.568;2024-03-08T13:43:39;2.70;;;2.50;;
51475;SDS011;37554;50.362;7.568;2024-03-08T13:46:18;2.80;;;2.60;;
51475;SDS011;37554;50.362;7.568;2024-03-08T13:48:43;2.88;;;2.67;;
51475;SDS011;37554;50.362;7.568;2024-03-08T13:51:09;2.30;;;2.20;;
51475;SDS011;37554;50.362;7.568;2024-03-08T13:53:37;2.90;;;2.70;;
51475;SDS011;37554;50.362;7.568;2024-03-08T13:56:03;2.20;;;2.03;;
51475;SDS011;37554;50.362;7.568;2024-03-08T13:58:28;2.88;;;2.67;;
51475;SDS011;37554;50.362;7.568;2024-03-08T14:00:54;2.80;;;2.60;;
51475;SDS011;37554;50.362;7.568;2024-03-08T14:03:20;2.38;;;2.28;;
51475;SDS011;37554;50.362;7.568;2024-03-08T14:05:46;2.47;;;2.33;;
51475;SDS011;37554;50.362;7.568;2024-03-08T14:08:12;2.28;;;2.17;;
51475;SDS011;37554;50.362;7.568;2024-03-08T14:10:38;2.45;;;2.25;;
51475;SDS011;37554;50.362;7.568;2024-03-08T14:13:04;2.58;;;2.40;;
51475;SDS011;37554;50.362;7.568;2024-03-08T14:15:32;3.58;;;2.58;;
51475;SDS011;37554;50.362;7.568;2024-03-08T14:17:58;2.47;;;2.28;;
51475;SDS011;37554;50.362;7.568;2024-03-08T14:20:24;3.00;;;2.70;;
51475;SDS011;37554;50.362;7.568;2024-03-08T14:22:53;2.83;;;2.63;;
51475;SDS011;37554;50.362;7.568;2024-03-08T14:25:22;2.67;;;2.30;;
51475;SDS011;37554;50.362;7.568;2024-03-08T14:27:49;2.63;;;2.42;;
51475;SDS011;37554;50.362;7.568;2024-03-08T14:30:18;3.25;;;2.47;;
51475;SDS011;37554;50.362;7.568;2024-03-08T14:33:14;2.75;;;2.55;;
51475;SDS011;37554;50.362;7.568;2024-03-08T14:35:40;2.80;;;2.60;;
51475;SDS011;37554;50.362;7.568;2024-03-08T14:38:06;2.97;;;2.72;;
51475;SDS011;37554;50.362;7.568;2024-03-08T14:40:36;2.75;;;2.45;;
51475;SDS011;37554;50.362;7.568;2024-03-08T14:43:03;2.55;;;2.35;;
51475;SDS011;37554;50.362;7.568;2024-03-08T14:45:29;2.80;;;2.60;;
51475;SDS011;37554;50.362;7.568;2024-03-08T14:47:56;2.75;;;2.55;;
51475;SDS011;37554;50.362;7.568;2024-03-08T14:50:22;2.67;;;2.47;;
51475;SDS011;37554;50.362;7.568;2024-03-08T14:52:49;2.83;;;2.63;;
51475;SDS011;37554;50.362;7.568;2024-03-08T14:55:16;3.00;;;2.45;;
51475;SDS011;37554;50.362;7.568;2024-03-08T14:57:44;2.80;;;2.60;;